This is the latest recevied weather packets stored in our database for station/object NY3Q. If no packets are shown the sender has not sent any weather packets the latest 1 day(s).
| Time | Temp. | Humidity | Pressure | Rain* | Wind** | Luminosity | Snow |
|---|---|---|---|---|---|---|---|
| 1778106748 | 28.89° C | 60% | 1014.3 hPa | 0 mm | - | 197 W/m² | - |
| 1778105537 | 30° C | 59% | 1014.4 hPa | 0 mm | - | 252 W/m² | - |
| 1778105234 | 30° C | 59% | 1014.3 hPa | 0 mm | - | 265 W/m² | - |
| 1778104321 | 30° C | 58% | 1014.2 hPa | 0 mm | - | 285 W/m² | - |
| 1778104018 | 30.56° C | 57% | 1014.3 hPa | 0 mm | - | 276 W/m² | - |
| 1778103414 | 31.11° C | 56% | 1014.3 hPa | 0 mm | - | 278 W/m² | - |
| 1778101895 | 31.11° C | 59% | 1014.7 hPa | 0 mm | - | 394 W/m² | - |
| 1778101592 | 31.11° C | 58% | 1014.5 hPa | 0 mm | - | 380 W/m² | - |
| 1778097954 | 31.11° C | 59% | 1014.9 hPa | 0 mm | - | 446 W/m² | - |
| 1778097651 | 31.11° C | 58% | 1014.9 hPa | 0 mm | - | 516 W/m² | - |
| 1778097044 | 31.11° C | 59% | 1015.3 hPa | 0 mm | - | 497 W/m² | - |
| 1778096742 | 31.11° C | 57% | 1015.1 hPa | 0 mm | - | 564 W/m² | - |
| 1778095225 | 31.67° C | 56% | 1015.5 hPa | 0 mm | - | 509 W/m² | - |
| 1778094922 | 31.67° C | 59% | 1015.6 hPa | 0 mm | - | 532 W/m² | - |
| 1778094618 | 32.22° C | 56% | 1015.5 hPa | 0 mm | - | 537 W/m² | - |
| 1778091890 | 33.89° C | 43% | 1016.1 hPa | 0 mm | - | 654 W/m² | - |
| 1778091285 | 33.89° C | 43% | 1016.1 hPa | 0 mm | - | 647 W/m² | - |
| 1778088254 | 32.78° C | 47% | 1016.5 hPa | 0 mm | - | 588 W/m² | - |
| 1778087951 | 32.78° C | 48% | 1017 hPa | 0 mm | - | 609 W/m² | - |
| 1778087347 | 32.78° C | 48% | 1017 hPa | 0 mm | - | 520 W/m² | - |
| 1778084919 | 32.22° C | 50% | 1017.2 hPa | 0 mm | - | 577 W/m² | - |
| 1778084012 | 31.67° C | 53% | 1017.5 hPa | 0 mm | - | 560 W/m² | - |
| 1778083710 | 31.11° C | 53% | 1017.6 hPa | 0 mm | - | 562 W/m² | - |
| 1778083105 | 30.56° C | 54% | 1017.5 hPa | 0 mm | - | 610 W/m² | - |
| 1778082801 | 30.56° C | 52% | 1017.5 hPa | 0 mm | - | 592 W/m² | - |
* Rain latest hour (hover to see other rain measurements)
** Current wind speed in m/s (hover to see current wind gust speed)